Time;durP1;ratioP1;P1;durP2;ratioP2;P2;SDS_P1;SDS_P2;PMS_P1;PMS_P2;Temp;Humidity;BMP_temperature;BMP_pressure;BME280_temperature;BME280_humidity;BME280_pressure;Samples;Min_cycle;Max_cycle;Signal;HPM_P1;HPM_P2
2023/01/20 00:02:17;;;;;;;5.85;2.95;;;0.30;99.90;;;;;;5009188;28;20048;-38
2023/01/20 00:04:42;;;;;;;5.82;2.72;;;0.30;99.90;;;;;;4989760;28;20073;-40
2023/01/20 00:07:08;;;;;;;7.78;3.03;;;0.30;99.90;;;;;;5013969;28;20041;-39
2023/01/20 00:09:34;;;;;;;6.05;2.75;;;0.20;99.90;;;;;;5006059;28;20042;-39
2023/01/20 00:11:59;;;;;;;5.72;2.95;;;0.20;99.90;;;;;;5009346;28;20099;-40
2023/01/20 00:14:26;;;;;;;7.03;2.55;;;0.20;99.90;;;;;;5010486;28;20411;-39
2023/01/20 00:16:52;;;;;;;5.75;2.33;;;0.20;99.90;;;;;;4988684;28;20045;-39
2023/01/20 00:19:18;;;;;;;5.63;2.42;;;0.10;99.90;;;;;;5010203;28;20034;-39
2023/01/20 00:21:43;;;;;;;5.97;2.75;;;0.10;99.90;;;;;;4997060;28;20116;-39
2023/01/20 00:24:09;;;;;;;5.40;2.85;;;0.10;99.90;;;;;;5019054;28;20044;-40
2023/01/20 00:26:35;;;;;;;5.07;2.38;;;0.10;99.90;;;;;;5005656;28;20048;-39
2023/01/20 00:29:00;;;;;;;7.15;2.65;;;0.10;99.90;;;;;;5006854;28;20029;-38
2023/01/20 00:31:28;;;;;;;6.40;2.80;;;0.10;99.90;;;;;;5009463;28;20038;-39
2023/01/20 00:33:57;;;;;;;5.53;2.90;;;0.00;99.90;;;;;;5017933;28;20042;-40
2023/01/20 00:36:25;;;;;;;5.72;3.17;;;0.00;99.90;;;;;;5010690;28;20072;-39
2023/01/20 00:38:51;;;;;;;6.38;3.25;;;0.00;99.90;;;;;;5011887;28;20053;-40
2023/01/20 00:41:17;;;;;;;5.07;2.58;;;0.00;99.90;;;;;;5007539;28;20395;-38
2023/01/20 00:43:44;;;;;;;6.28;3.22;;;0.00;99.90;;;;;;5015390;28;20384;-39
2023/01/20 00:46:10;;;;;;;6.32;3.05;;;0.00;99.90;;;;;;5011880;28;20049;-39
2023/01/20 00:48:37;;;;;;;7.55;2.95;;;0.10;99.90;;;;;;5010652;28;20048;-39
2023/01/20 00:51:05;;;;;;;6.80;3.70;;;0.10;99.90;;;;;;5013196;28;20116;-40
2023/01/20 00:53:31;;;;;;;8.10;3.20;;;0.20;99.90;;;;;;5011703;28;20160;-39
2023/01/20 00:55:57;;;;;;;8.95;3.67;;;0.20;99.90;;;;;;4994393;28;20133;-39
2023/01/20 00:58:22;;;;;;;7.68;4.05;;;0.30;99.90;;;;;;5008181;28;20046;-39
2023/01/20 01:00:49;;;;;;;10.63;3.47;;;0.40;99.90;;;;;;5005623;28;20471;-41
2023/01/20 01:03:16;;;;;;;19.92;5.18;;;0.40;99.90;;;;;;5007032;28;20129;-40
2023/01/20 01:05:42;;;;;;;14.23;5.03;;;0.50;99.90;;;;;;5009554;28;20127;-39
2023/01/20 01:08:08;;;;;;;11.30;5.05;;;0.50;99.90;;;;;;5010505;28;20064;-39
2023/01/20 01:10:34;;;;;;;13.05;6.05;;;0.50;99.90;;;;;;5009869;28;20495;-41
2023/01/20 01:13:00;;;;;;;11.45;5.57;;;0.50;99.90;;;;;;5006886;28;20054;-39
2023/01/20 01:15:27;;;;;;;12.95;5.97;;;0.50;99.90;;;;;;5014009;28;20046;-38
2023/01/20 01:17:53;;;;;;;13.43;6.55;;;0.60;99.90;;;;;;5007705;28;20426;-40
2023/01/20 01:20:19;;;;;;;14.82;4.95;;;0.60;99.90;;;;;;5009805;28;20156;-40
2023/01/20 01:22:44;;;;;;;13.13;5.30;;;0.60;99.90;;;;;;4993889;28;20080;-38
2023/01/20 01:25:10;;;;;;;11.18;5.72;;;0.60;99.90;;;;;;5011445;28;20458;-38
2023/01/20 01:27:36;;;;;;;12.70;6.38;;;0.60;99.90;;;;;;5013529;28;20052;-39
2023/01/20 01:30:02;;;;;;;14.43;6.18;;;0.60;99.90;;;;;;5007816;28;20030;-39
2023/01/20 01:32:28;;;;;;;12.30;6.03;;;0.70;99.90;;;;;;5008546;28;20061;-39
2023/01/20 01:34:53;;;;;;;12.82;6.28;;;0.60;99.90;;;;;;5008631;28;20042;-41
2023/01/20 01:37:19;;;;;;;13.13;6.20;;;0.70;99.90;;;;;;5009479;28;20494;-39
2023/01/20 01:40:00;;;;;;;10.30;5.13;;;0.60;99.90;;;;;;4973032;28;20034;-39
2023/01/20 01:42:25;;;;;;;8.90;4.32;;;0.60;99.90;;;;;;5009933;28;20050;-39
2023/01/20 01:45:09;;;;;;;10.85;5.35;;;0.60;99.90;;;;;;5009025;28;20131;-40
2023/01/20 01:47:48;;;;;;;10.68;5.20;;;0.60;99.90;;;;;;5007197;28;20461;-39
2023/01/20 01:50:19;;;;;;;11.00;5.18;;;0.60;99.90;;;;;;5011423;28;20063;-38
2023/01/20 01:52:48;;;;;;;10.20;5.05;;;0.60;99.90;;;;;;5008299;28;20104;-40
2023/01/20 01:55:16;;;;;;;12.90;5.50;;;0.60;99.90;;;;;;5018259;28;20038;-39
2023/01/20 01:57:42;;;;;;;10.15;5.00;;;0.60;99.90;;;;;;5006643;28;20045;-39
2023/01/20 02:00:09;;;;;;;13.40;5.88;;;0.60;99.90;;;;;;5005513;28;20037;-40
2023/01/20 02:02:35;;;;;;;11.40;5.35;;;0.70;99.90;;;;;;5005970;28;20152;-39
2023/01/20 02:05:01;;;;;;;13.13;5.88;;;0.70;99.90;;;;;;5009002;28;20458;-39
2023/01/20 02:07:28;;;;;;;12.88;5.55;;;0.70;99.90;;;;;;5007795;28;20463;-38
2023/01/20 02:09:53;;;;;;;13.45;6.35;;;0.70;99.90;;;;;;5011669;28;20038;-39
2023/01/20 02:12:21;;;;;;;11.95;5.20;;;0.70;99.90;;;;;;5009090;28;20510;-38
2023/01/20 02:14:52;;;;;;;13.63;5.80;;;0.70;99.90;;;;;;5008284;28;20108;-41
2023/01/20 02:17:31;;;;;;;12.68;5.97;;;0.70;99.90;;;;;;5009923;28;20049;-41
2023/01/20 02:20:35;;;;;;;12.25;5.75;;;0.70;99.90;;;;;;5009266;28;20042;-39
2023/01/20 02:23:42;;;;;;;13.95;6.25;;;0.70;99.90;;;;;;5006385;28;20037;-39
2023/01/20 02:26:27;;;;;;;12.88;5.40;;;0.70;99.90;;;;;;4943035;28;20102;-41
2023/01/20 02:28:52;;;;;;;15.43;6.07;;;0.70;99.90;;;;;;5003507;28;20053;-40
2023/01/20 02:31:30;;;;;;;11.70;5.05;;;0.70;99.90;;;;;;5009149;28;20044;-39
2023/01/20 02:34:07;;;;;;;13.80;7.07;;;0.70;99.90;;;;;;5002864;28;20034;-39
2023/01/20 02:36:38;;;;;;;16.25;6.25;;;0.70;99.90;;;;;;5007687;28;20133;-38
2023/01/20 02:39:21;;;;;;;13.95;6.03;;;0.70;99.90;;;;;;5008347;28;20049;-40
2023/01/20 02:42:02;;;;;;;14.85;6.35;;;0.70;99.90;;;;;;5008005;28;20649;-41
2023/01/20 02:44:57;;;;;;;13.52;6.18;;;0.70;99.90;;;;;;5004625;28;20124;-38
2023/01/20 02:47:31;;;;;;;11.45;4.72;;;0.70;99.90;;;;;;4986730;28;20057;-40
2023/01/20 02:50:15;;;;;;;13.50;6.50;;;0.70;99.90;;;;;;5007211;28;20049;-39
2023/01/20 02:52:44;;;;;;;11.27;5.47;;;0.70;99.90;;;;;;5007775;28;20581;-40
2023/01/20 02:55:16;;;;;;;16.23;7.28;;;0.70;99.90;;;;;;5004714;28;20112;-39
2023/01/20 02:57:50;;;;;;;16.27;6.38;;;0.70;99.90;;;;;;5007933;28;20072;-39
2023/01/20 03:00:26;;;;;;;13.73;6.70;;;0.70;99.90;;;;;;5004858;28;20038;-41
2023/01/20 03:02:54;;;;;;;14.05;6.40;;;0.70;99.90;;;;;;5006298;28;20042;-38
2023/01/20 03:05:24;;;;;;;12.75;5.68;;;0.70;99.90;;;;;;5013933;28;20112;-40
2023/01/20 03:07:51;;;;;;;18.15;7.28;;;0.70;99.90;;;;;;5003188;28;20041;-41
2023/01/20 03:10:22;;;;;;;16.23;6.72;;;0.70;99.90;;;;;;5006505;28;20041;-41
2023/01/20 03:12:54;;;;;;;14.90;5.68;;;0.70;99.90;;;;;;5008430;28;20033;-42
2023/01/20 03:15:24;;;;;;;16.35;6.63;;;0.70;99.90;;;;;;5012564;28;20076;-39
2023/01/20 03:17:51;;;;;;;9.82;5.03;;;0.70;99.90;;;;;;4992375;28;20042;-39
2023/01/20 03:20:17;;;;;;;15.73;6.65;;;0.70;99.90;;;;;;5010193;28;20096;-40
2023/01/20 03:22:42;;;;;;;17.95;7.88;;;0.70;99.90;;;;;;5008743;28;20072;-39
2023/01/20 03:25:10;;;;;;;12.52;5.93;;;0.70;99.90;;;;;;4987989;28;20038;-40
2023/01/20 03:27:36;;;;;;;16.17;6.15;;;0.70;99.90;;;;;;5007607;28;20069;-42
2023/01/20 03:30:04;;;;;;;15.48;7.22;;;0.70;99.90;;;;;;5019264;28;20382;-41
2023/01/20 03:32:31;;;;;;;15.23;6.55;;;0.70;99.90;;;;;;5001125;28;20380;-41
2023/01/20 03:34:58;;;;;;;13.55;5.85;;;0.70;99.90;;;;;;5007449;28;20618;-38
2023/01/20 03:37:23;;;;;;;18.83;7.70;;;0.70;99.90;;;;;;5004477;28;20049;-39
2023/01/20 03:39:50;;;;;;;16.83;7.57;;;0.70;99.90;;;;;;5008063;28;20045;-39
2023/01/20 03:42:35;;;;;;;19.58;7.63;;;0.70;99.90;;;;;;5004530;28;20041;-40
2023/01/20 03:45:07;;;;;;;17.40;7.97;;;0.70;99.90;;;;;;5008646;28;20084;-39
2023/01/20 03:47:47;;;;;;;17.45;7.47;;;0.70;99.90;;;;;;4992348;28;20050;-41
2023/01/20 03:50:28;;;;;;;15.38;6.97;;;0.70;99.90;;;;;;5007521;28;20034;-39
2023/01/20 03:53:17;;;;;;;17.45;7.57;;;0.70;99.90;;;;;;5015747;28;20038;-39
2023/01/20 03:55:54;;;;;;;16.13;6.70;;;0.80;99.90;;;;;;5009859;28;20030;-39
2023/01/20 03:58:33;;;;;;;15.48;7.13;;;0.80;99.90;;;;;;4998157;28;20034;-40
2023/01/20 04:01:00;;;;;;;15.90;7.32;;;0.70;99.90;;;;;;5007868;28;20167;-39
2023/01/20 04:03:32;;;;;;;17.42;7.82;;;0.80;99.90;;;;;;5009323;28;20484;-39
2023/01/20 04:06:02;;;;;;;16.90;7.67;;;0.80;99.90;;;;;;5014958;28;20045;-39
2023/01/20 04:08:32;;;;;;;15.77;7.18;;;0.80;99.90;;;;;;5015321;28;20049;-40
2023/01/20 04:11:02;;;;;;;21.08;8.55;;;0.70;99.90;;;;;;5016015;28;20077;-39
2023/01/20 04:13:28;;;;;;;17.42;7.28;;;0.80;99.90;;;;;;5011161;28;20045;-39
2023/01/20 04:15:55;;;;;;;15.82;7.55;;;0.70;99.90;;;;;;5012603;28;20046;-39
2023/01/20 04:18:22;;;;;;;15.68;6.90;;;0.80;99.90;;;;;;5010068;28;20046;-40
2023/01/20 04:20:52;;;;;;;19.05;8.57;;;0.80;99.90;;;;;;5011950;28;20038;-39
2023/01/20 04:23:35;;;;;;;20.17;8.13;;;0.80;99.90;;;;;;5009582;28;20061;-39
2023/01/20 04:26:01;;;;;;;19.20;8.50;;;0.80;99.90;;;;;;5008361;28;20041;-39
2023/01/20 04:28:27;;;;;;;17.40;7.68;;;0.80;99.90;;;;;;5008268;28;20042;-41
2023/01/20 04:30:52;;;;;;;17.25;7.70;;;0.80;99.90;;;;;;5011238;28;20522;-40
2023/01/20 04:33:18;;;;;;;16.88;8.25;;;0.80;99.90;;;;;;5010259;28;20486;-41
2023/01/20 04:35:44;;;;;;;19.27;7.63;;;0.80;99.90;;;;;;5012247;28;20029;-39
2023/01/20 04:38:10;;;;;;;17.35;7.50;;;0.80;99.90;;;;;;5008940;28;20108;-41
2023/01/20 04:40:35;;;;;;;20.98;9.15;;;0.80;99.90;;;;;;5010924;28;20029;-40
2023/01/20 04:43:01;;;;;;;18.48;7.55;;;0.80;99.90;;;;;;4997570;28;20076;-41
2023/01/20 04:45:27;;;;;;;18.40;8.02;;;0.80;99.90;;;;;;5010540;28;20045;-39
2023/01/20 04:47:52;;;;;;;19.45;8.77;;;0.70;99.90;;;;;;5007275;28;20045;-39
2023/01/20 04:50:18;;;;;;;18.25;7.93;;;0.80;99.90;;;;;;5002238;28;20041;-40
2023/01/20 04:52:44;;;;;;;21.60;8.65;;;0.70;99.90;;;;;;5010318;28;20513;-42
2023/01/20 04:55:10;;;;;;;19.02;8.57;;;0.70;99.90;;;;;;5001751;28;20149;-40
2023/01/20 04:57:36;;;;;;;18.60;8.45;;;0.70;99.90;;;;;;5011945;28;20514;-41
2023/01/20 05:00:04;;;;;;;20.60;8.38;;;0.70;99.90;;;;;;5011730;28;20029;-41
2023/01/20 05:02:29;;;;;;;21.85;9.02;;;0.70;99.90;;;;;;5005563;28;20390;-39
2023/01/20 05:04:55;;;;;;;19.80;7.57;;;0.70;99.90;;;;;;5010050;28;20069;-41
2023/01/20 05:07:21;;;;;;;19.50;7.78;;;0.70;99.90;;;;;;5010659;28;20038;-39
2023/01/20 05:09:46;;;;;;;21.42;8.93;;;0.70;99.90;;;;;;5011952;28;20045;-40
2023/01/20 05:12:12;;;;;;;21.55;9.48;;;0.70;99.90;;;;;;5006768;28;20503;-39
2023/01/20 05:14:38;;;;;;;22.73;9.18;;;0.70;99.90;;;;;;5004357;28;20459;-38
2023/01/20 05:17:04;;;;;;;19.00;8.85;;;0.70;99.90;;;;;;5003690;28;20096;-38
2023/01/20 05:19:29;;;;;;;27.13;9.82;;;0.80;99.90;;;;;;5006641;28;20037;-39
2023/01/20 05:21:55;;;;;;;22.05;9.77;;;0.80;99.90;;;;;;5005013;28;20096;-40
2023/01/20 05:24:21;;;;;;;25.75;11.13;;;0.80;99.90;;;;;;5009024;28;20171;-40
2023/01/20 05:26:46;;;;;;;25.52;11.18;;;0.80;99.90;;;;;;5013771;28;20117;-40
2023/01/20 05:29:12;;;;;;;23.50;9.70;;;0.80;99.90;;;;;;5005288;28;20030;-40
2023/01/20 05:31:41;;;;;;;24.13;10.07;;;0.80;99.90;;;;;;5007725;28;20068;-41
2023/01/20 05:34:08;;;;;;;22.20;9.60;;;0.80;99.90;;;;;;5005573;28;20100;-40
2023/01/20 05:36:34;;;;;;;24.45;10.07;;;0.80;99.90;;;;;;5008267;28;20065;-39
2023/01/20 05:38:59;;;;;;;24.00;10.23;;;0.80;99.90;;;;;;5005665;28;20041;-39
2023/01/20 05:41:25;;;;;;;23.60;10.40;;;0.80;99.90;;;;;;5004839;28;20105;-40
2023/01/20 05:43:54;;;;;;;22.38;9.38;;;0.80;99.90;;;;;;5008399;28;20076;-39
2023/01/20 05:46:20;;;;;;;26.48;10.48;;;0.80;99.90;;;;;;5006113;28;20071;-39
2023/01/20 05:48:46;;;;;;;23.23;9.70;;;0.80;99.90;;;;;;5010568;28;20483;-40
2023/01/20 05:51:11;;;;;;;22.88;9.63;;;0.80;99.90;;;;;;5004960;28;20554;-39
2023/01/20 05:53:37;;;;;;;25.88;10.80;;;0.80;99.90;;;;;;5008707;28;20037;-45
2023/01/20 05:56:04;;;;;;;25.17;11.63;;;0.80;99.90;;;;;;5007954;28;20052;-39
2023/01/20 05:58:31;;;;;;;22.92;9.55;;;0.80;99.90;;;;;;5008238;28;20042;-40
2023/01/20 06:01:23;;;;;;;16.05;7.55;;;0.80;99.90;;;;;;5013648;28;20033;-39
2023/01/20 06:03:48;;;;;;;27.05;10.40;;;0.80;99.90;;;;;;5003697;28;20104;-39
2023/01/20 06:06:16;;;;;;;29.92;10.77;;;0.80;99.90;;;;;;5007617;28;20451;-40
2023/01/20 06:08:42;;;;;;;24.40;10.65;;;0.80;99.90;;;;;;5011936;28;20533;-41
2023/01/20 06:11:08;;;;;;;23.38;11.00;;;0.80;99.90;;;;;;5008411;28;20578;-41
2023/01/20 06:13:34;;;;;;;25.30;10.45;;;0.80;99.90;;;;;;5006020;28;20042;-39
2023/01/20 06:16:00;;;;;;;26.45;11.07;;;0.80;99.90;;;;;;5009813;28;20048;-40
2023/01/20 06:18:26;;;;;;;23.40;10.05;;;0.80;99.90;;;;;;5008091;28;20038;-41
2023/01/20 06:20:56;;;;;;;24.15;10.30;;;0.80;99.90;;;;;;5008459;28;20100;-39
2023/01/20 06:23:22;;;;;;;24.13;9.82;;;0.80;99.90;;;;;;5012566;28;20054;-39
2023/01/20 06:25:47;;;;;;;27.00;11.18;;;0.80;99.90;;;;;;5010400;28;20052;-39
2023/01/20 06:28:13;;;;;;;31.35;11.38;;;0.80;99.90;;;;;;5003277;28;20052;-39
2023/01/20 06:30:41;;;;;;;25.23;10.10;;;0.80;99.90;;;;;;5002479;28;20038;-40
2023/01/20 06:33:09;;;;;;;25.98;11.48;;;0.80;99.90;;;;;;5012739;28;20077;-39
2023/01/20 06:35:36;;;;;;;28.42;12.05;;;0.80;99.90;;;;;;5004237;28;20033;-39
2023/01/20 06:38:01;;;;;;;24.50;10.98;;;0.80;99.90;;;;;;5005417;28;20109;-43
2023/01/20 06:40:27;;;;;;;28.50;12.00;;;0.80;99.90;;;;;;4995612;28;20172;-41
2023/01/20 06:42:53;;;;;;;30.63;12.55;;;0.80;99.90;;;;;;5004690;28;20459;-41
2023/01/20 06:45:18;;;;;;;24.23;10.98;;;0.80;99.90;;;;;;5002213;28;20483;-43
2023/01/20 06:47:48;;;;;;;26.23;11.07;;;0.80;99.90;;;;;;5001828;28;20104;-41
2023/01/20 06:50:14;;;;;;;26.55;11.43;;;0.80;99.90;;;;;;5005019;28;20045;-44
2023/01/20 06:52:40;;;;;;;30.40;12.38;;;0.80;99.90;;;;;;5006892;28;20088;-39
2023/01/20 06:55:06;;;;;;;31.20;12.38;;;0.80;99.90;;;;;;5006806;28;20065;-45
2023/01/20 06:57:32;;;;;;;31.70;12.90;;;0.80;99.90;;;;;;5004902;28;20846;-41
2023/01/20 06:59:58;;;;;;;29.33;11.45;;;0.90;99.90;;;;;;4991760;28;20080;-43
2023/01/20 07:02:24;;;;;;;29.27;11.70;;;0.80;99.90;;;;;;5008592;28;20088;-43
2023/01/20 07:04:52;;;;;;;29.08;12.73;;;0.80;99.90;;;;;;5000597;28;20045;-42
2023/01/20 07:07:18;;;;;;;29.25;10.75;;;0.80;99.90;;;;;;5010788;28;20049;-44
2023/01/20 07:09:44;;;;;;;29.45;11.15;;;0.90;99.90;;;;;;5008505;28;20343;-41
2023/01/20 07:12:09;;;;;;;27.60;11.50;;;0.80;99.90;;;;;;5009350;28;20057;-41
2023/01/20 07:14:35;;;;;;;31.65;13.35;;;0.80;99.90;;;;;;5005026;28;20558;-37
2023/01/20 07:17:01;;;;;;;28.00;10.93;;;0.80;99.90;;;;;;5009191;28;20506;-37
2023/01/20 07:19:26;;;;;;;33.47;11.82;;;0.90;99.90;;;;;;5008542;28;20463;-37
2023/01/20 07:21:52;;;;;;;31.20;12.15;;;0.90;99.90;;;;;;5010557;28;20116;-37
2023/01/20 07:24:18;;;;;;;26.25;9.75;;;0.90;99.90;;;;;;5008139;28;20073;-38
2023/01/20 07:26:43;;;;;;;33.15;11.93;;;0.90;99.90;;;;;;5005621;28;20735;-38
2023/01/20 07:29:09;;;;;;;32.75;11.95;;;0.90;99.90;;;;;;5012845;28;20049;-40
2023/01/20 07:31:35;;;;;;;32.78;12.52;;;0.90;99.90;;;;;;5001147;28;20561;-37
2023/01/20 07:34:01;;;;;;;29.95;12.13;;;0.90;99.90;;;;;;5009750;28;20399;-38
2023/01/20 07:36:27;;;;;;;27.58;11.40;;;0.90;99.90;;;;;;4996783;28;20137;-37
2023/01/20 07:38:53;;;;;;;29.88;11.32;;;0.90;99.90;;;;;;4984891;28;20038;-37
2023/01/20 07:41:19;;;;;;;32.38;11.77;;;0.90;99.90;;;;;;4992103;28;20046;-37
2023/01/20 07:43:48;;;;;;;29.08;12.32;;;0.90;99.90;;;;;;4991027;28;20578;-38
2023/01/20 07:46:14;;;;;;;36.28;12.93;;;1.00;99.90;;;;;;4983581;28;20056;-39
2023/01/20 07:48:40;;;;;;;35.22;12.77;;;1.00;99.90;;;;;;4984782;28;20081;-39
2023/01/20 07:51:11;;;;;;;32.08;12.15;;;1.00;99.90;;;;;;4988927;28;20492;-39
2023/01/20 07:53:49;;;;;;;35.58;11.68;;;1.00;99.90;;;;;;4989000;28;20042;-39
2023/01/20 07:56:25;;;;;;;30.65;11.65;;;1.00;99.90;;;;;;4990195;28;20057;-39
2023/01/20 07:58:52;;;;;;;30.00;11.88;;;1.00;99.90;;;;;;4991211;28;20050;-39
2023/01/20 08:01:26;;;;;;;30.80;12.27;;;1.00;99.90;;;;;;4994271;28;20042;-41
2023/01/20 08:03:52;;;;;;;31.33;12.38;;;1.00;99.90;;;;;;4990921;28;20479;-40
2023/01/20 08:06:20;;;;;;;27.70;10.32;;;1.00;99.90;;;;;;4991039;28;20038;-39
2023/01/20 08:08:46;;;;;;;30.80;11.20;;;1.00;99.90;;;;;;4990309;28;20508;-38
2023/01/20 08:11:14;;;;;;;32.15;11.05;;;1.00;99.90;;;;;;4999705;28;20046;-38
2023/01/20 08:13:40;;;;;;;30.35;11.32;;;1.10;99.90;;;;;;4986820;28;20046;-39
2023/01/20 08:16:09;;;;;;;33.92;12.77;;;1.10;99.90;;;;;;4987240;28;20120;-39
2023/01/20 08:18:35;;;;;;;34.65;11.88;;;1.10;99.90;;;;;;4983352;28;20153;-38
2023/01/20 08:21:06;;;;;;;27.92;12.13;;;1.10;99.90;;;;;;4986038;28;20177;-40
2023/01/20 08:23:36;;;;;;;33.42;12.05;;;1.20;99.90;;;;;;4993309;28;20039;-41
2023/01/20 08:26:06;;;;;;;32.80;12.00;;;1.10;99.90;;;;;;4983299;28;20124;-42
2023/01/20 08:28:33;;;;;;;30.30;11.40;;;1.20;99.90;;;;;;4969737;28;20092;-40
2023/01/20 08:31:07;;;;;;;32.20;11.02;;;1.20;99.90;;;;;;4980062;28;20201;-38
2023/01/20 08:33:33;;;;;;;28.27;11.75;;;1.30;99.90;;;;;;4980325;28;20532;-38
2023/01/20 08:36:07;;;;;;;37.15;14.25;;;1.30;99.90;;;;;;4982837;28;20054;-38
2023/01/20 08:38:33;;;;;;;32.80;11.07;;;1.30;99.90;;;;;;5002809;28;20041;-38
2023/01/20 08:40:59;;;;;;;30.88;11.02;;;1.30;99.90;;;;;;5005909;28;20033;-40
2023/01/20 08:43:25;;;;;;;30.98;11.75;;;1.30;99.90;;;;;;5002606;28;20393;-37
2023/01/20 08:46:05;;;;;;;27.08;10.77;;;1.30;99.90;;;;;;4986681;28;20042;-40
2023/01/20 08:48:30;;;;;;;31.95;12.35;;;1.40;99.90;;;;;;4997473;28;20080;-38
2023/01/20 08:50:56;;;;;;;27.23;10.88;;;1.40;99.90;;;;;;5005523;28;20495;-38
2023/01/20 08:53:22;;;;;;;31.52;11.60;;;1.40;99.90;;;;;;4988863;28;20125;-39
2023/01/20 08:55:58;;;;;;;32.53;11.02;;;1.50;99.90;;;;;;5009357;28;20049;-39
2023/01/20 08:58:25;;;;;;;23.58;9.75;;;1.50;99.90;;;;;;4982835;28;20070;-38
2023/01/20 09:00:51;;;;;;;26.60;10.40;;;1.50;99.90;;;;;;5006577;28;20126;-39
2023/01/20 09:03:17;;;;;;;27.67;10.40;;;1.50;99.90;;;;;;5015350;28;20483;-38
2023/01/20 09:05:42;;;;;;;25.38;10.77;;;1.60;99.90;;;;;;5009537;28;20042;-38
2023/01/20 09:08:08;;;;;;;24.77;10.68;;;1.60;99.90;;;;;;5009185;28;20056;-38
2023/01/20 09:10:34;;;;;;;29.75;11.80;;;1.60;99.90;;;;;;5006514;28;20038;-39
2023/01/20 09:13:00;;;;;;;29.98;10.63;;;1.70;99.90;;;;;;5005894;28;20036;-38
2023/01/20 09:15:26;;;;;;;28.75;10.25;;;1.70;99.90;;;;;;5004826;28;20131;-39
2023/01/20 09:17:51;;;;;;;27.73;10.60;;;1.70;99.90;;;;;;5007893;28;20087;-39
2023/01/20 09:20:17;;;;;;;29.02;10.70;;;1.70;99.90;;;;;;5012062;28;20553;-39
2023/01/20 09:22:43;;;;;;;25.75;10.60;;;1.70;99.90;;;;;;4988218;28;20044;-41
2023/01/20 09:25:10;;;;;;;25.45;8.73;;;1.70;99.90;;;;;;5004637;28;20049;-39
2023/01/20 09:27:36;;;;;;;24.55;9.82;;;1.70;99.90;;;;;;5009450;28;20165;-38
2023/01/20 09:30:02;;;;;;;26.17;10.05;;;1.70;99.90;;;;;;5002813;28;20518;-40
2023/01/20 09:32:28;;;;;;;31.38;10.57;;;1.70;99.90;;;;;;5013905;28;20049;-38
2023/01/20 09:34:55;;;;;;;27.73;10.43;;;1.70;99.90;;;;;;5006443;28;20060;-40
2023/01/20 09:46:13;;;;;;;27.55;10.77;;;1.80;99.90;;;;;;5003598;28;20069;-38
2023/01/20 09:55:35;;;;;;;26.33;9.45;;;1.80;99.90;;;;;;4984966;28;20128;-38
2023/01/20 09:58:20;;;;;;;22.90;6.65;;;1.80;99.90;;;;;;4968581;28;20507;-38
2023/01/20 10:01:29;;;;;;;25.92;8.43;;;1.80;99.90;;;;;;5003635;28;20033;-40
2023/01/20 10:04:24;;;;;;;21.73;9.50;;;1.80;99.90;;;;;;5003636;28;20403;-38
2023/01/20 10:07:01;;;;;;;30.40;10.63;;;1.80;99.90;;;;;;5004175;28;20049;-38
2023/01/20 10:09:44;;;;;;;27.33;9.77;;;1.80;99.90;;;;;;5007056;28;20407;-39
2023/01/20 10:12:17;;;;;;;24.70;9.82;;;1.80;99.90;;;;;;5006673;28;20050;-39
2023/01/20 10:15:27;;;;;;;23.67;9.98;;;1.80;99.90;;;;;;4999053;28;20514;-38
2023/01/20 10:17:59;;;;;;;24.15;9.40;;;1.80;99.90;;;;;;5004292;28;20057;-40
2023/01/20 10:21:01;;;;;;;24.30;9.55;;;1.80;99.90;;;;;;5006863;28;20045;-38
2023/01/20 10:23:47;;;;;;;29.95;10.63;;;1.90;99.90;;;;;;5003118;28;20053;-38
2023/01/20 10:26:20;;;;;;;25.52;10.45;;;1.90;99.90;;;;;;5003965;28;20524;-39
2023/01/20 10:29:01;;;;;;;25.33;10.65;;;1.90;99.90;;;;;;5006657;28;20090;-38
2023/01/20 10:31:32;;;;;;;25.85;10.20;;;1.90;99.90;;;;;;5012234;28;20128;-40
2023/01/20 10:34:06;;;;;;;26.27;10.70;;;1.90;99.90;;;;;;5007579;28;20491;-39
2023/01/20 10:36:33;;;;;;;23.38;10.10;;;1.90;99.90;;;;;;5004263;28;20062;-39
2023/01/20 10:39:11;;;;;;;27.17;10.52;;;1.90;99.90;;;;;;5006005;28;20480;-39
2023/01/20 10:41:45;;;;;;;23.52;9.32;;;1.90;99.90;;;;;;5006710;28;20037;-40
2023/01/20 10:44:13;;;;;;;23.13;10.02;;;1.90;99.90;;;;;;5002799;28;20223;-40
2023/01/20 10:46:59;;;;;;;22.50;7.75;;;2.00;99.90;;;;;;5011163;28;20037;-40
2023/01/20 10:49:48;;;;;;;24.65;10.27;;;2.00;99.90;;;;;;5008165;28;20045;-39
2023/01/20 10:52:16;;;;;;;22.17;8.98;;;2.00;99.90;;;;;;5010062;28;20049;-42
2023/01/20 10:55:10;;;;;;;26.17;10.00;;;2.10;99.90;;;;;;5008020;28;20041;-39
2023/01/20 10:57:37;;;;;;;26.73;10.43;;;2.00;99.90;;;;;;5006121;28;20554;-38
2023/01/20 11:00:06;;;;;;;26.95;10.05;;;2.10;99.90;;;;;;5007844;28;20534;-40
2023/01/20 11:02:36;;;;;;;22.55;8.50;;;2.10;99.90;;;;;;5006990;28;20541;-39
2023/01/20 11:05:21;;;;;;;23.98;9.65;;;2.10;99.90;;;;;;5007890;28;20081;-40
2023/01/20 11:07:49;;;;;;;26.92;11.75;;;2.10;99.90;;;;;;4994907;28;20439;-40
2023/01/20 11:10:22;;;;;;;28.85;9.90;;;2.20;99.90;;;;;;5009920;28;20037;-39
2023/01/20 11:12:53;;;;;;;25.88;10.52;;;2.20;99.90;;;;;;5013192;28;20037;-39
2023/01/20 11:15:31;;;;;;;28.88;10.38;;;2.20;99.90;;;;;;5008058;28;20073;-39
2023/01/20 11:18:14;;;;;;;29.80;10.82;;;2.20;99.90;;;;;;5003132;28;20041;-39
2023/01/20 11:20:47;;;;;;;26.75;10.10;;;2.20;99.90;;;;;;5010393;28;20100;-38
2023/01/20 11:23:37;;;;;;;25.02;9.90;;;2.20;99.90;;;;;;5001709;28;20048;-39
2023/01/20 11:26:22;;;;;;;26.58;10.35;;;2.20;99.90;;;;;;5003866;28;20124;-39
2023/01/20 11:28:51;;;;;;;27.90;11.55;;;2.20;99.90;;;;;;4986426;28;20058;-41
2023/01/20 11:31:18;;;;;;;24.95;10.27;;;2.20;99.90;;;;;;5003652;28;20061;-39
2023/01/20 11:33:58;;;;;;;26.80;9.13;;;2.30;99.90;;;;;;5006333;28;20076;-39
2023/01/20 11:36:26;;;;;;;23.88;9.55;;;2.20;99.90;;;;;;5005696;28;20065;-38
2023/01/20 11:38:53;;;;;;;18.95;7.80;;;2.30;99.90;;;;;;5012388;28;20076;-38
2023/01/20 11:41:22;;;;;;;27.02;10.48;;;2.30;99.90;;;;;;5004220;28;20042;-39
2023/01/20 11:43:50;;;;;;;26.88;9.63;;;2.30;99.90;;;;;;5009687;28;20056;-39
2023/01/20 11:46:22;;;;;;;28.48;10.88;;;2.20;99.90;;;;;;4978444;28;20045;-41
2023/01/20 11:48:49;;;;;;;30.10;11.33;;;2.30;99.90;;;;;;5001324;28;20080;-39
2023/01/20 11:51:24;;;;;;;28.33;10.93;;;2.30;99.90;;;;;;5003094;28;20399;-39
2023/01/20 11:53:51;;;;;;;26.08;9.93;;;2.30;99.90;;;;;;5008522;28;20550;-38
2023/01/20 11:56:25;;;;;;;22.52;9.93;;;2.30;99.90;;;;;;5008104;28;20067;-40
2023/01/20 11:59:03;;;;;;;27.42;9.50;;;2.30;99.90;;;;;;5000519;28;20505;-39
2023/01/20 12:01:38;;;;;;;27.13;9.77;;;2.30;99.90;;;;;;5001088;28;20143;-39
2023/01/20 12:04:18;;;;;;;25.15;9.48;;;2.30;99.90;;;;;;5005782;28;20098;-40
2023/01/20 12:07:09;;;;;;;22.95;9.70;;;2.40;99.90;;;;;;5006856;28;20041;-39
2023/01/20 12:09:43;;;;;;;25.30;9.55;;;2.40;99.90;;;;;;4998707;28;20477;-41
2023/01/20 12:12:35;;;;;;;21.73;9.55;;;2.40;99.90;;;;;;5004068;28;20041;-41
2023/01/20 12:15:19;;;;;;;24.17;10.02;;;2.40;99.90;;;;;;5004100;28;20089;-39
2023/01/20 12:17:55;;;;;;;26.30;9.82;;;2.40;99.90;;;;;;4989699;28;20121;-39
2023/01/20 12:20:43;;;;;;;27.17;11.10;;;2.50;99.90;;;;;;5002371;28;20062;-38
2023/01/20 12:23:38;;;;;;;24.60;9.75;;;2.50;99.90;;;;;;5006809;28;20045;-39
2023/01/20 12:26:05;;;;;;;25.20;10.68;;;2.50;99.90;;;;;;5002327;28;20053;-39
2023/01/20 12:28:52;;;;;;;26.20;10.23;;;2.50;99.90;;;;;;5003947;28;20518;-41
2023/01/20 12:31:19;;;;;;;23.30;8.35;;;2.50;99.90;;;;;;5003793;28;20046;-38
2023/01/20 12:33:50;;;;;;;24.45;8.57;;;2.50;99.90;;;;;;5009905;28;20057;-41
2023/01/20 12:36:29;;;;;;;22.15;9.70;;;2.50;99.90;;;;;;5010216;28;20045;-39
2023/01/20 12:39:17;;;;;;;25.23;10.00;;;2.50;99.90;;;;;;5006025;28;20037;-39
2023/01/20 12:41:58;;;;;;;20.38;8.18;;;2.50;99.90;;;;;;5004816;28;20065;-39
2023/01/20 12:44:43;;;;;;;22.33;8.73;;;2.50;99.90;;;;;;5010120;28;20041;-40
2023/01/20 12:47:15;;;;;;;22.65;8.98;;;2.50;99.90;;;;;;5013174;28;20050;-39
2023/01/20 12:49:44;;;;;;;;;;;2.50;99.90;;;;;;5010589;28;20491;-41
2023/01/20 12:52:23;;;;;;;24.83;10.13;;;2.40;99.90;;;;;;5009169;28;19917;-40
2023/01/20 12:54:55;;;;;;;23.85;9.38;;;2.40;99.90;;;;;;4988345;28;20072;-41
2023/01/20 12:57:39;;;;;;;18.77;8.40;;;2.40;99.90;;;;;;4970289;28;20084;-39
2023/01/20 13:00:24;;;;;;;26.73;10.25;;;2.50;99.90;;;;;;4989245;28;20500;-41
2023/01/20 13:03:14;;;;;;;19.67;8.00;;;2.40;99.90;;;;;;4987626;28;20038;-39
2023/01/20 13:06:03;;;;;;;26.33;9.48;;;2.40;99.90;;;;;;4986409;28;20128;-39
2023/01/20 13:08:35;;;;;;;24.30;10.00;;;2.40;99.90;;;;;;4971584;28;20050;-42
2023/01/20 13:11:33;;;;;;;25.80;10.30;;;2.30;99.90;;;;;;4985826;28;20499;-39
2023/01/20 13:14:26;;;;;;;22.83;9.95;;;2.40;99.90;;;;;;4981922;28;20042;-39
2023/01/20 13:17:05;;;;;;;27.90;9.70;;;2.40;99.90;;;;;;4986248;28;20043;-39
2023/01/20 13:19:40;;;;;;;29.75;10.55;;;2.30;99.90;;;;;;4987303;28;20097;-39